Kirkby Stephen, United Kingdom
Current Conditions -  °F | °C
As of 9:50 PM on Monday 20 Oct 2014 (Local Time) from EGXE Reporting Station
Broken Clouds Broken Clouds  
Wind Chill: 52°   Ceiling: 16000
Heat Index: 52°   Visibility: 6mi
Dew Point: 48°   Wind: 5mph
Humidity: 88%   Direction: 90°E
Pressure: 29.68"   Gusts: NA
Location:  54.47°N, 2.35°W
Report Text: EGXE 202050Z AUTO 09004KT 9999 BKN160/// 11/09 Q1005
Loading
Personal Weather Stations






























Interactive Weather Map
Tropical Storm Tracking
New forecast layout! Learn more

10-Day Weather Forecast

Advertisements
Track Severe Weather on mobile